createdAt,value
2018-04-12T00:01:28.489Z,105.97
2018-04-12T00:04:31.001Z,95.10
2018-04-12T00:07:33.504Z,107.57
2018-04-12T00:10:36.031Z,112.80
2018-04-12T00:13:38.504Z,104.90
2018-04-12T00:16:41.001Z,110.13
2018-04-12T00:19:43.480Z,99.80
2018-04-12T00:22:45.989Z,108.87
2018-04-12T00:25:48.496Z,99.67
2018-04-12T00:28:50.996Z,104.60
2018-04-12T00:31:53.550Z,105.47
2018-04-12T00:34:56.136Z,105.43
2018-04-12T00:37:58.636Z,98.50
2018-04-12T00:41:01.111Z,99.57
2018-04-12T00:44:03.603Z,109.37
2018-04-12T00:47:06.054Z,105.40
2018-04-12T00:50:08.571Z,107.70
2018-04-12T00:53:11.086Z,125.10
2018-04-12T00:56:13.692Z,99.47
2018-04-12T00:59:16.243Z,110.83
2018-04-12T01:02:18.708Z,110.70
2018-04-12T01:05:21.212Z,110.87
2018-04-12T01:08:23.718Z,114.43
2018-04-12T01:11:26.233Z,107.43
2018-04-12T01:14:28.806Z,125.27
2018-04-12T01:17:31.271Z,112.70
2018-04-12T01:20:33.816Z,114.20
2018-04-12T01:23:36.328Z,116.17
2018-04-12T01:26:38.830Z,128.37
2018-04-12T01:29:41.346Z,124.93
2018-04-12T01:32:43.791Z,113.30
2018-04-12T01:35:46.281Z,134.83
2018-04-12T01:38:48.771Z,120.43
2018-04-12T01:41:51.257Z,128.57
2018-04-12T01:44:53.852Z,128.20
2018-04-12T01:47:56.361Z,124.13
2018-04-12T01:50:58.843Z,132.27
2018-04-12T01:54:01.302Z,118.50
2018-04-12T01:57:03.817Z,117.17
2018-04-12T02:00:06.293Z,107.37
2018-04-12T02:03:08.876Z,117.47
2018-04-12T02:06:11.366Z,117.80
2018-04-12T02:09:13.862Z,129.70
2018-04-12T02:12:16.509Z,135.90
2018-04-12T02:15:18.967Z,122.17
2018-04-12T02:18:21.465Z,119.77
2018-04-12T02:21:23.990Z,118.57
2018-04-12T02:24:26.464Z,112.23
2018-04-12T02:27:28.949Z,107.00
2018-04-12T02:30:31.484Z,115.90
2018-04-12T02:33:33.998Z,111.00
2018-04-12T02:36:36.477Z,111.07
2018-04-12T02:39:38.974Z,113.50
2018-04-12T02:42:41.497Z,113.73
2018-04-12T02:45:44.013Z,124.53
2018-04-12T02:48:46.463Z,129.43
2018-04-12T02:51:49.105Z,113.57
2018-04-12T02:54:51.641Z,118.97
2018-04-12T02:57:54.140Z,118.53
2018-04-12T03:00:56.620Z,105.87
2018-04-12T03:03:59.093Z,108.00
2018-04-12T03:07:01.594Z,108.40
2018-04-12T03:10:04.186Z,95.33
2018-04-12T03:13:06.740Z,92.60
2018-04-12T03:16:09.214Z,97.10
2018-04-12T03:19:11.765Z,94.10
2018-04-12T03:22:14.224Z,102.97
2018-04-12T03:25:16.760Z,107.13
2018-04-12T03:28:19.249Z,118.27
2018-04-12T03:31:21.753Z,105.60
2018-04-12T03:34:24.260Z,112.20
2018-04-12T03:37:26.748Z,110.23
2018-04-12T03:40:29.256Z,108.87
2018-04-12T03:43:31.864Z,110.33
2018-04-12T03:46:34.325Z,103.13
2018-04-12T03:49:36.870Z,105.73
2018-04-12T03:52:39.361Z,104.00
2018-04-12T03:55:41.876Z,107.80
2018-04-12T03:58:44.348Z,96.37
2018-04-12T04:01:46.918Z,91.90
2018-04-12T04:04:49.389Z,103.57
2018-04-12T04:07:51.931Z,85.93
2018-04-12T04:10:54.413Z,93.93
2018-04-12T04:13:56.879Z,92.13
2018-04-12T04:17:11.574Z,103.83
2018-04-12T04:20:26.049Z,106.23
2018-04-12T04:23:28.545Z,116.47
2018-04-12T04:26:31.023Z,116.07
2018-04-12T04:29:33.606Z,99.97
2018-04-12T04:32:36.110Z,107.67
2018-04-12T04:35:38.609Z,100.30
2018-04-12T04:38:41.040Z,88.73
2018-04-12T04:41:44.735Z,101.83
2018-04-12T04:44:47.276Z,99.60
2018-04-12T04:47:49.777Z,100.50
2018-04-12T04:50:52.309Z,86.33
2018-04-12T04:53:54.782Z,107.40
2018-04-12T04:56:57.261Z,80.23
2018-04-12T04:59:59.707Z,95.00
2018-04-12T05:03:02.172Z,100.33
2018-04-12T05:06:04.676Z,92.53
2018-04-12T05:09:07.187Z,105.70
2018-04-12T05:12:09.650Z,94.53
2018-04-12T05:15:12.116Z,96.00
2018-04-12T05:18:14.746Z,98.07
2018-04-12T05:21:17.181Z,93.57
2018-04-12T05:24:19.686Z,99.63
2018-04-12T05:27:22.160Z,103.67
2018-04-12T05:30:24.654Z,105.93
2018-04-12T05:33:27.116Z,103.07
2018-04-12T05:36:29.648Z,105.33
2018-04-12T05:39:32.108Z,100.00
2018-04-12T05:42:34.621Z,100.50
2018-04-12T05:45:37.157Z,104.23
2018-04-12T05:48:39.689Z,101.37
2018-04-12T05:51:42.150Z,102.67
2018-04-12T05:54:44.645Z,119.23
2018-04-12T05:57:47.095Z,108.50
2018-04-12T06:00:49.628Z,114.07
2018-04-12T06:03:52.085Z,106.23
2018-04-12T06:06:54.587Z,96.70
2018-04-12T06:09:57.060Z,121.40
2018-04-12T06:12:59.596Z,102.93
2018-04-12T06:16:02.091Z,104.93
2018-04-12T06:19:04.599Z,85.57
2018-04-12T06:22:07.069Z,98.80
2018-04-12T06:25:09.533Z,108.63
2018-04-12T06:28:12.008Z,106.50
2018-04-12T06:31:14.533Z,102.67
2018-04-12T06:34:17.022Z,105.00
2018-04-12T06:37:19.531Z,111.37
2018-04-12T06:40:22.107Z,97.47
2018-04-12T06:43:24.662Z,99.67
2018-04-12T06:46:27.170Z,114.73
2018-04-12T06:49:29.687Z,100.20
2018-04-12T06:52:32.246Z,106.60
2018-04-12T06:55:34.769Z,101.23
2018-04-12T06:58:37.289Z,97.73
2018-04-12T07:01:39.759Z,101.37
2018-04-12T07:04:42.252Z,92.27
2018-04-12T07:07:44.743Z,104.47
2018-04-12T07:10:47.223Z,94.97
2018-04-12T07:13:49.699Z,108.27
2018-04-12T07:16:52.235Z,103.03
2018-04-12T07:19:54.787Z,102.53
2018-04-12T07:22:57.290Z,103.70
2018-04-12T07:25:59.806Z,110.03
2018-04-12T07:29:02.279Z,101.80
2018-04-12T07:32:04.848Z,110.90
2018-04-12T07:35:07.388Z,116.77
2018-04-12T07:38:09.845Z,113.57
2018-04-12T07:41:12.370Z,129.07
2018-04-12T07:44:14.844Z,103.83
2018-04-12T07:47:17.382Z,111.07
2018-04-12T07:50:19.821Z,94.00
2018-04-12T07:53:22.360Z,108.73
2018-04-12T07:56:24.936Z,89.70
2018-04-12T07:59:27.384Z,109.93
2018-04-12T08:02:29.899Z,104.47
2018-04-12T08:05:32.474Z,97.40
2018-04-12T08:08:34.971Z,100.40
2018-04-12T08:11:37.481Z,103.80
2018-04-12T08:14:39.956Z,105.97
2018-04-12T08:20:51.306Z,101.63
2018-04-12T08:23:53.945Z,97.57
2018-04-12T08:26:56.443Z,107.03
2018-04-12T08:29:58.937Z,110.73
2018-04-12T08:33:01.406Z,97.57
2018-04-12T08:36:03.910Z,97.30
2018-04-12T08:39:06.453Z,106.27
2018-04-12T08:42:08.993Z,102.70
2018-04-12T08:45:11.472Z,106.77
2018-04-12T08:48:13.968Z,107.07
2018-04-12T08:51:16.511Z,102.90
2018-04-12T08:54:18.992Z,117.10
2018-04-12T08:57:21.499Z,104.80
2018-04-12T09:00:23.958Z,111.20
2018-04-12T09:03:26.497Z,112.70
2018-04-12T09:06:29.067Z,98.47
2018-04-12T09:09:31.587Z,110.67
2018-04-12T09:12:34.073Z,99.47
2018-04-12T09:15:36.605Z,111.87
2018-04-12T09:18:39.098Z,98.40
2018-04-12T09:21:41.613Z,99.50
2018-04-12T09:24:44.134Z,95.20
2018-04-12T09:27:46.635Z,103.97
2018-04-12T09:30:49.676Z,118.53
2018-04-12T09:33:52.152Z,109.77
2018-04-12T09:36:54.680Z,138.00
2018-04-12T09:39:57.199Z,111.47
2018-04-12T09:42:59.698Z,128.10
2018-04-12T09:46:02.180Z,104.57
2018-04-12T09:49:04.712Z,104.97
2018-04-12T09:52:07.206Z,104.20
2018-04-12T09:55:09.716Z,101.20
2018-04-12T09:58:12.210Z,109.87
2018-04-12T10:01:15.460Z,106.63
2018-04-12T10:04:17.924Z,97.43
2018-04-12T10:07:20.445Z,103.27
2018-04-12T10:10:22.954Z,112.27
2018-04-12T10:13:25.465Z,98.73
2018-04-12T10:16:27.953Z,104.40
2018-04-12T10:19:30.509Z,99.70
2018-04-12T10:22:32.989Z,104.63
2018-04-12T10:25:35.650Z,102.97
2018-04-12T10:28:38.159Z,103.93
2018-04-12T10:31:40.690Z,94.67
2018-04-12T10:34:43.205Z,100.90
2018-04-12T10:37:45.709Z,103.30
2018-04-12T10:40:48.208Z,97.03
2018-04-12T10:43:50.695Z,100.27
2018-04-12T10:46:53.189Z,96.37
2018-04-12T10:49:55.682Z,98.20
2018-04-12T10:52:58.298Z,98.10
2018-04-12T10:56:00.840Z,102.70
2018-04-12T10:59:03.320Z,109.90
2018-04-12T11:02:05.865Z,102.83
2018-04-12T11:05:08.442Z,106.37
2018-04-12T11:08:10.963Z,101.13
2018-04-12T11:11:13.467Z,105.93
2018-04-12T11:14:16.006Z,104.13
2018-04-12T11:17:18.461Z,110.33
2018-04-12T11:20:20.928Z,103.47
2018-04-12T11:23:23.539Z,114.37
2018-04-12T11:26:26.003Z,99.83
2018-04-12T11:29:28.493Z,102.87
2018-04-12T11:32:31.007Z,100.23
2018-04-12T11:35:33.554Z,96.03
2018-04-12T11:38:36.078Z,90.73
2018-04-12T11:41:38.549Z,98.00
2018-04-12T11:44:41.054Z,91.70
2018-04-12T11:47:43.589Z,101.17
2018-04-12T11:50:46.041Z,97.20
2018-04-12T11:53:48.549Z,94.50
2018-04-12T11:56:51.019Z,89.60
2018-04-12T11:59:53.521Z,94.53
2018-04-12T12:02:55.993Z,91.93
2018-04-12T12:05:58.509Z,83.07
2018-04-12T12:09:00.992Z,81.77
2018-04-12T12:12:03.525Z,87.43
2018-04-12T12:15:06.020Z,84.70
2018-04-12T12:18:08.592Z,89.77
2018-04-12T12:21:11.115Z,81.13
2018-04-12T12:24:13.625Z,81.20
2018-04-12T12:27:16.122Z,77.67
2018-04-12T12:30:18.600Z,77.43
2018-04-12T12:33:21.129Z,80.13
2018-04-12T12:36:23.669Z,76.30
2018-04-12T12:39:26.455Z,77.37
2018-04-12T12:42:28.944Z,81.40
2018-04-12T12:45:31.479Z,82.67
2018-04-12T12:48:33.976Z,84.13
2018-04-12T12:51:36.479Z,81.87
2018-04-12T12:54:38.978Z,84.60
2018-04-12T12:57:41.481Z,80.63
2018-04-12T13:00:43.945Z,84.50
2018-04-12T13:03:46.463Z,79.90
2018-04-12T13:06:48.947Z,84.90
2018-04-12T13:09:51.579Z,84.13
2018-04-12T13:12:54.143Z,74.60
2018-04-12T13:15:56.666Z,76.43
2018-04-12T13:18:59.141Z,73.50
2018-04-12T13:22:01.725Z,83.47
2018-04-12T13:25:04.419Z,80.43
2018-04-12T13:28:06.928Z,77.97
2018-04-12T13:31:09.453Z,78.13
2018-04-12T13:34:11.969Z,80.30
2018-04-12T13:37:14.737Z,78.07
2018-04-12T13:40:17.304Z,83.70
2018-04-12T13:43:19.831Z,77.23
2018-04-12T13:46:22.408Z,79.07
2018-04-12T13:49:24.858Z,80.00
2018-04-12T13:52:27.381Z,75.40
2018-04-12T13:55:29.855Z,74.10
2018-04-12T13:58:32.449Z,72.87
2018-04-12T14:01:34.964Z,76.30
2018-04-12T14:04:37.457Z,69.93
2018-04-12T14:07:40.046Z,67.77
2018-04-12T14:10:42.543Z,68.57
2018-04-12T14:13:45.051Z,71.43
2018-04-12T14:16:47.582Z,73.17
2018-04-12T14:19:50.084Z,69.53
2018-04-12T14:22:52.605Z,69.87
2018-04-12T14:25:55.453Z,71.67
2018-04-12T14:28:58.020Z,66.50
2018-04-12T14:32:00.531Z,70.87
2018-04-12T14:35:03.105Z,65.00
2018-04-12T14:38:05.881Z,65.10
2018-04-12T14:41:08.553Z,66.50
2018-04-12T14:44:11.224Z,65.60
2018-04-12T14:47:13.726Z,61.10
2018-04-12T14:50:16.204Z,64.53
2018-04-12T14:53:18.812Z,64.07
2018-04-12T14:56:21.322Z,62.70
2018-04-12T14:59:23.835Z,63.30
2018-04-12T15:02:26.358Z,63.33
2018-04-12T15:05:28.864Z,60.43
2018-04-12T15:08:31.387Z,67.80
2018-04-12T15:11:33.928Z,61.90
2018-04-12T15:14:36.469Z,65.67
2018-04-12T15:17:39.045Z,59.77
2018-04-12T15:20:41.603Z,60.50
2018-04-12T15:23:44.102Z,59.53
2018-04-12T15:26:46.575Z,56.43
2018-04-12T15:29:49.107Z,56.33
2018-04-12T15:32:51.639Z,60.23
2018-04-12T15:35:54.111Z,58.33
2018-04-12T15:38:56.682Z,55.57
2018-04-12T15:41:59.205Z,54.80
2018-04-12T15:45:01.722Z,51.77
2018-04-12T15:48:04.196Z,52.03
2018-04-12T15:51:06.728Z,53.57
2018-04-12T15:54:09.205Z,53.50
2018-04-12T15:57:11.733Z,54.17
2018-04-12T16:00:14.378Z,50.13
2018-04-12T16:03:16.941Z,50.90
2018-04-12T16:06:19.440Z,45.90
2018-04-12T16:09:21.940Z,50.00
2018-04-12T16:12:24.516Z,55.30
2018-04-12T16:15:26.988Z,51.90
2018-04-12T16:18:29.553Z,49.10
2018-04-12T16:21:32.037Z,45.70
2018-04-12T16:24:34.615Z,47.73
2018-04-12T16:27:37.085Z,46.37
2018-04-12T16:30:39.655Z,44.30
2018-04-12T16:33:42.107Z,43.90
2018-04-12T16:36:44.645Z,39.80
2018-04-12T16:39:47.171Z,45.10
2018-04-12T16:42:49.645Z,45.00
2018-04-12T16:45:52.204Z,46.13
2018-04-12T16:48:54.766Z,43.03
2018-04-12T16:51:57.312Z,42.60
2018-04-12T16:54:59.767Z,50.07
2018-04-12T16:58:02.319Z,43.23
2018-04-12T17:01:04.896Z,39.93
2018-04-12T17:04:07.410Z,45.70
2018-04-12T17:07:09.938Z,49.70
2018-04-12T17:10:12.482Z,43.97
2018-04-12T17:13:15.023Z,39.10
2018-04-12T17:16:17.538Z,46.10
2018-04-12T17:19:20.049Z,41.83
2018-04-12T17:22:22.588Z,39.87
2018-04-12T17:25:25.158Z,41.90
2018-04-12T17:28:27.777Z,40.63
2018-04-12T17:31:30.342Z,43.73
2018-04-12T17:34:33.737Z,44.33
2018-04-12T17:37:36.240Z,40.53
2018-04-12T17:40:38.744Z,38.10
2018-04-12T17:43:41.222Z,37.50
2018-04-12T17:46:43.778Z,43.30
2018-04-12T17:49:46.333Z,47.67
2018-04-12T17:52:48.859Z,41.67
2018-04-12T17:55:51.465Z,44.50
2018-04-12T17:58:53.915Z,39.77
2018-04-12T18:01:56.480Z,43.70
2018-04-12T18:04:58.945Z,40.10
2018-04-12T18:08:01.505Z,40.70
2018-04-12T18:11:04.023Z,39.50
2018-04-12T18:14:06.528Z,37.67
2018-04-12T18:17:09.090Z,40.73
2018-04-12T18:20:11.665Z,40.60
2018-04-12T18:23:14.219Z,39.80
2018-04-12T18:26:16.846Z,38.57
2018-04-12T18:29:19.380Z,39.17
2018-04-12T18:32:21.904Z,43.17
2018-04-12T18:35:24.482Z,38.83
2018-04-12T18:38:26.985Z,37.07
2018-04-12T18:41:29.617Z,39.70
2018-04-12T18:44:32.210Z,36.70
2018-04-12T18:47:34.733Z,39.47
2018-04-12T18:50:37.221Z,37.97
2018-04-12T18:53:39.751Z,36.67
2018-04-12T18:56:42.412Z,38.17
2018-04-12T18:59:45.004Z,33.47
2018-04-12T19:02:47.554Z,32.57
2018-04-12T19:05:50.103Z,35.50
2018-04-12T19:08:52.785Z,33.10
2018-04-12T19:11:55.375Z,36.77
2018-04-12T19:14:57.999Z,37.33
2018-04-12T19:18:00.557Z,35.83
2018-04-12T19:21:03.111Z,31.80
2018-04-12T19:24:06.522Z,36.40
2018-04-12T19:27:09.161Z,40.03
2018-04-12T19:30:11.696Z,35.10
2018-04-12T19:33:14.191Z,37.27
2018-04-12T19:36:16.716Z,39.63
2018-04-12T19:42:28.012Z,34.67
2018-04-12T19:45:30.533Z,39.53
2018-04-12T19:48:33.047Z,40.30
2018-04-12T19:51:35.599Z,37.63
2018-04-12T19:54:38.090Z,37.30
2018-04-12T19:57:40.724Z,35.70
2018-04-12T20:00:43.283Z,38.60
2018-04-12T20:03:45.817Z,32.97
2018-04-12T20:06:48.323Z,33.47
2018-04-12T20:09:50.825Z,38.20
2018-04-12T20:12:53.537Z,35.00
2018-04-12T20:15:56.040Z,31.20
2018-04-12T20:18:58.556Z,33.53
2018-04-12T20:22:01.092Z,32.60
2018-04-12T20:25:03.605Z,38.43
2018-04-12T20:28:06.230Z,37.00
2018-04-12T20:31:08.694Z,38.60
2018-04-12T20:34:11.207Z,31.97
2018-04-12T20:37:13.732Z,38.73
2018-04-12T20:40:16.310Z,37.97
2018-04-12T20:43:18.864Z,39.20
2018-04-12T20:46:21.388Z,32.20
2018-04-12T20:49:23.990Z,35.07
2018-04-12T20:52:26.533Z,35.53
2018-04-12T20:55:29.006Z,31.30
2018-04-12T20:58:31.536Z,34.13
2018-04-12T21:01:34.049Z,39.60
2018-04-12T21:04:36.605Z,40.00
2018-04-12T21:07:39.075Z,32.50
2018-04-12T21:10:41.637Z,35.83
2018-04-12T21:13:44.143Z,34.17
2018-04-12T21:16:46.754Z,43.53
2018-04-12T21:19:49.239Z,35.07
2018-04-12T21:22:51.868Z,39.27
2018-04-12T21:25:54.441Z,36.83
2018-04-12T21:28:56.980Z,37.43
2018-04-12T21:31:59.521Z,35.23
2018-04-12T21:35:02.056Z,41.70
2018-04-12T21:38:04.540Z,37.83
2018-04-12T21:41:07.086Z,44.03
2018-04-12T21:44:09.596Z,39.50
2018-04-12T21:47:12.132Z,38.10
2018-04-12T21:50:14.660Z,38.30
2018-04-12T21:53:17.263Z,40.27
2018-04-12T21:56:19.745Z,49.10
2018-04-12T21:59:22.269Z,49.03
2018-04-12T22:02:24.774Z,43.17
2018-04-12T22:05:27.260Z,46.67
2018-04-12T22:08:29.798Z,45.43
2018-04-12T22:11:32.335Z,40.10
2018-04-12T22:14:34.806Z,40.80
2018-04-12T22:17:37.346Z,44.83
2018-04-12T22:20:39.950Z,45.20
2018-04-12T22:23:42.478Z,43.90
2018-04-12T22:26:44.954Z,50.20
2018-04-12T22:29:47.425Z,43.93
2018-04-12T22:32:49.955Z,51.93
2018-04-12T22:35:53.816Z,52.50
2018-04-12T22:38:56.351Z,46.40
2018-04-12T22:41:58.863Z,54.87
2018-04-12T22:45:01.341Z,51.40
2018-04-12T22:48:03.836Z,50.77
2018-04-12T22:51:06.338Z,56.23
2018-04-12T22:54:08.847Z,56.30
2018-04-12T22:57:11.330Z,48.37
2018-04-12T23:00:13.822Z,50.20
2018-04-12T23:03:16.337Z,52.60
2018-04-12T23:06:18.906Z,52.67
2018-04-12T23:09:21.465Z,57.03
2018-04-12T23:12:23.976Z,46.63
2018-04-12T23:15:26.462Z,53.57
2018-04-12T23:18:28.984Z,50.17
2018-04-12T23:21:31.482Z,44.20
2018-04-12T23:24:34.076Z,42.10
2018-04-12T23:27:36.576Z,53.47
2018-04-12T23:30:39.073Z,38.70
2018-04-12T23:33:41.566Z,31.93
2018-04-12T23:36:44.221Z,31.97
2018-04-12T23:39:46.787Z,28.63
2018-04-12T23:42:49.293Z,28.50
2018-04-12T23:45:51.753Z,23.00
2018-04-12T23:48:54.284Z,24.00
2018-04-12T23:51:56.777Z,25.60
2018-04-12T23:54:59.318Z,30.77
2018-04-12T23:58:01.857Z,32.93
